Time;durP1;ratioP1;P1;durP2;ratioP2;P2;SDS_P1;SDS_P2;PMS_P1;PMS_P2;Temp;Humidity;BMP_temperature;BMP_pressure;BME280_temperature;BME280_humidity;BME280_pressure;Samples;Min_cycle;Max_cycle;Signal;HPM_P1;HPM_P2
2021/07/12 00:01:02;;;;;;;1.27;1.17;;;16.20;99.90;;;;;;4961409;28;20236;-78
2021/07/12 00:03:28;;;;;;;1.30;1.20;;;16.20;99.90;;;;;;4961344;28;20220;-78
2021/07/12 00:05:54;;;;;;;1.58;1.20;;;16.20;99.90;;;;;;4961749;28;20185;-79
2021/07/12 00:08:20;;;;;;;1.67;1.35;;;16.10;99.90;;;;;;4965169;28;20189;-78
2021/07/12 00:10:46;;;;;;;3.30;1.67;;;16.20;99.90;;;;;;4961675;28;20199;-78
2021/07/12 00:13:12;;;;;;;2.10;1.55;;;16.20;99.90;;;;;;4962023;28;20209;-78
2021/07/12 00:15:38;;;;;;;3.00;1.30;;;16.30;99.90;;;;;;4964768;28;20689;-79
2021/07/12 00:18:03;;;;;;;1.58;1.48;;;16.40;99.90;;;;;;4964074;28;20224;-77
2021/07/12 00:20:29;;;;;;;3.40;1.75;;;16.30;99.90;;;;;;4962887;28;20204;-78
2021/07/12 00:22:57;;;;;;;1.98;1.80;;;16.20;99.90;;;;;;4963448;28;20271;-78
2021/07/12 00:25:23;;;;;;;1.77;1.67;;;16.20;99.90;;;;;;4962320;28;20215;-77
2021/07/12 00:27:49;;;;;;;2.30;1.92;;;16.30;99.90;;;;;;4961294;28;20184;-78
2021/07/12 00:30:17;;;;;;;2.00;1.88;;;16.30;99.90;;;;;;4957719;28;20204;-77
2021/07/12 00:32:43;;;;;;;4.28;1.98;;;16.30;99.90;;;;;;4961739;28;20240;-78
2021/07/12 00:35:11;;;;;;;1.73;1.63;;;16.30;99.90;;;;;;4964050;28;20189;-78
2021/07/12 00:37:37;;;;;;;4.53;1.95;;;16.10;99.90;;;;;;4962393;28;20205;-79
2021/07/12 00:40:08;;;;;;;2.00;1.83;;;16.10;99.90;;;;;;4957234;28;20208;-77
2021/07/12 00:42:34;;;;;;;2.00;1.80;;;16.10;99.90;;;;;;4958446;28;20205;-76
2021/07/12 00:45:00;;;;;;;4.03;1.80;;;16.00;99.90;;;;;;4960279;28;20188;-80
2021/07/12 00:47:26;;;;;;;6.50;2.38;;;16.00;99.90;;;;;;4958936;28;20729;-78
2021/07/12 00:49:51;;;;;;;3.35;1.52;;;16.00;99.90;;;;;;4961312;28;20186;-79
2021/07/12 00:52:17;;;;;;;5.22;1.80;;;15.90;99.90;;;;;;4962284;28;20199;-78
2021/07/12 00:54:43;;;;;;;2.42;2.22;;;15.90;99.90;;;;;;4963624;28;20181;-78
2021/07/12 00:57:09;;;;;;;7.07;1.90;;;15.90;99.90;;;;;;4963200;28;20303;-79
2021/07/12 00:59:35;;;;;;;4.85;2.42;;;15.80;99.90;;;;;;4962720;28;20182;-79
2021/07/12 01:02:02;;;;;;;9.27;2.92;;;15.80;99.90;;;;;;4962297;28;20257;-78
2021/07/12 01:04:28;;;;;;;3.45;2.28;;;15.80;99.90;;;;;;4959361;28;20185;-77
2021/07/12 01:06:53;;;;;;;2.05;1.80;;;15.80;99.90;;;;;;4962951;28;20181;-78
2021/07/12 01:09:19;;;;;;;3.60;2.08;;;15.70;99.90;;;;;;4960626;28;20181;-79
2021/07/12 01:11:58;;;;;;;5.47;2.42;;;15.80;99.90;;;;;;4962834;28;20180;-78
2021/07/12 01:14:27;;;;;;;7.75;2.70;;;15.80;99.90;;;;;;4960066;28;20228;-77
2021/07/12 01:17:10;;;;;;;2.67;1.88;;;15.90;99.90;;;;;;4959171;28;20712;-79
2021/07/12 01:20:15;;;;;;;6.15;2.20;;;15.80;99.90;;;;;;4962479;28;20731;-77
2021/07/12 01:23:08;;;;;;;2.67;2.22;;;15.90;99.90;;;;;;4958720;28;20193;-78
2021/07/12 01:26:12;;;;;;;4.55;2.50;;;15.90;99.90;;;;;;4961583;28;20251;-79
2021/07/12 01:28:46;;;;;;;5.93;3.17;;;16.00;99.90;;;;;;4959170;28;20264;-77
2021/07/12 01:31:27;;;;;;;2.90;2.60;;;15.90;99.90;;;;;;4956800;28;20207;-78
2021/07/12 01:34:05;;;;;;;3.38;2.70;;;15.90;99.90;;;;;;4962582;28;20212;-77
2021/07/12 01:36:39;;;;;;;7.15;3.25;;;15.80;99.90;;;;;;4961471;28;20274;-79
2021/07/12 01:39:13;;;;;;;5.57;2.60;;;15.80;99.90;;;;;;4961578;28;20192;-79
2021/07/12 01:41:51;;;;;;;3.35;2.72;;;15.90;99.90;;;;;;4959590;28;20184;-76
2021/07/12 01:44:26;;;;;;;4.43;2.90;;;15.90;99.90;;;;;;4960167;28;20237;-79
2021/07/12 01:46:57;;;;;;;5.18;3.05;;;16.00;99.90;;;;;;4958884;28;20288;-77
2021/07/12 01:49:32;;;;;;;3.90;3.08;;;15.90;99.90;;;;;;4960849;28;20724;-79
2021/07/12 01:52:33;;;;;;;3.00;2.47;;;16.00;99.90;;;;;;4960832;28;20216;-76
2021/07/12 01:55:08;;;;;;;2.78;2.58;;;16.00;99.90;;;;;;4961455;28;20298;-77
2021/07/12 01:57:51;;;;;;;3.13;2.72;;;15.90;99.90;;;;;;4961502;28;20208;-76
2021/07/12 02:00:19;;;;;;;5.07;2.95;;;15.90;99.90;;;;;;4960587;28;20190;-78
2021/07/12 02:02:47;;;;;;;5.45;2.60;;;15.90;99.90;;;;;;4961818;28;20531;-76
2021/07/12 02:05:18;;;;;;;4.88;3.00;;;15.80;99.90;;;;;;4962436;28;20182;-78
2021/07/12 02:07:44;;;;;;;3.13;2.85;;;15.70;99.90;;;;;;4962432;28;20190;-77
2021/07/12 02:10:11;;;;;;;7.72;3.00;;;15.60;99.90;;;;;;4959322;28;20194;-78
2021/07/12 02:12:37;;;;;;;3.10;2.75;;;15.50;99.90;;;;;;4961856;28;20223;-78
2021/07/12 02:15:06;;;;;;;6.13;2.47;;;15.50;99.90;;;;;;4961348;28;20794;-77
2021/07/12 02:17:32;;;;;;;3.20;2.58;;;15.40;99.90;;;;;;4960411;28;20241;-78
2021/07/12 02:20:08;;;;;;;3.85;2.70;;;15.50;99.90;;;;;;4959910;28;20659;-78
2021/07/12 02:22:36;;;;;;;4.18;2.90;;;15.40;99.90;;;;;;4962307;28;20197;-77
2021/07/12 02:25:04;;;;;;;4.30;2.63;;;15.30;99.90;;;;;;4959162;28;20186;-78
2021/07/12 02:27:32;;;;;;;2.55;2.35;;;15.20;99.90;;;;;;4959891;28;20196;-78
2021/07/12 02:29:58;;;;;;;8.65;3.10;;;15.20;99.90;;;;;;4958855;28;20192;-77
2021/07/12 02:32:26;;;;;;;2.45;2.25;;;15.20;99.90;;;;;;4958686;28;20314;-76
2021/07/12 02:34:52;;;;;;;5.28;2.47;;;15.10;99.90;;;;;;4960888;28;20220;-78
2021/07/12 02:37:19;;;;;;;3.08;2.42;;;15.30;99.90;;;;;;4962862;28;20299;-79
2021/07/12 02:39:46;;;;;;;3.78;2.63;;;15.20;99.90;;;;;;4957618;28;20200;-79
2021/07/12 02:42:13;;;;;;;4.45;2.88;;;15.20;99.90;;;;;;4959697;28;20182;-78
2021/07/12 02:44:43;;;;;;;2.40;2.20;;;15.20;99.90;;;;;;4960213;28;20292;-77
2021/07/12 02:47:09;;;;;;;7.82;2.22;;;15.20;99.90;;;;;;4962081;28;20236;-77
2021/07/12 02:49:36;;;;;;;4.45;2.53;;;15.20;99.90;;;;;;4962763;28;20186;-77
2021/07/12 02:52:14;;;;;;;2.53;2.33;;;15.10;99.90;;;;;;4962113;28;20272;-78
2021/07/12 02:54:42;;;;;;;3.97;2.58;;;15.00;99.90;;;;;;4964251;28;20189;-79
2021/07/12 02:57:08;;;;;;;3.58;3.08;;;15.10;99.90;;;;;;4963934;28;20224;-78
2021/07/12 02:59:34;;;;;;;4.00;2.42;;;15.10;99.90;;;;;;4962971;28;20189;-76
2021/07/12 03:01:59;;;;;;;3.15;2.83;;;15.00;99.90;;;;;;4963843;28;20553;-78
2021/07/12 03:04:25;;;;;;;2.58;2.38;;;15.00;99.90;;;;;;4960781;28;20237;-77
2021/07/12 03:06:52;;;;;;;2.75;2.30;;;15.10;99.90;;;;;;4964335;28;20754;-78
2021/07/12 03:09:25;;;;;;;2.78;2.45;;;15.00;99.90;;;;;;4963704;28;20192;-78
2021/07/12 03:11:56;;;;;;;3.22;2.20;;;15.00;99.90;;;;;;4962736;28;20419;-77
2021/07/12 03:14:34;;;;;;;2.90;2.60;;;15.00;99.90;;;;;;4965780;28;20229;-78
2021/07/12 03:17:01;;;;;;;3.05;2.75;;;15.10;99.90;;;;;;4966363;28;20207;-77
2021/07/12 03:19:30;;;;;;;3.83;2.45;;;15.20;99.90;;;;;;4964420;28;20193;-77
2021/07/12 03:21:58;;;;;;;2.47;2.17;;;15.20;99.90;;;;;;4964374;28;20531;-78
2021/07/12 03:24:28;;;;;;;3.55;2.60;;;15.10;99.90;;;;;;4963675;28;20284;-77
2021/07/12 03:26:55;;;;;;;2.55;2.28;;;15.20;99.90;;;;;;4961271;28;20212;-76
2021/07/12 03:29:22;;;;;;;5.40;2.95;;;15.30;99.90;;;;;;4960562;28;20189;-79
2021/07/12 03:31:49;;;;;;;2.75;2.55;;;15.30;99.90;;;;;;4967164;28;20186;-79
2021/07/12 03:34:16;;;;;;;5.03;2.55;;;15.40;99.90;;;;;;4964055;28;20205;-78
2021/07/12 03:36:44;;;;;;;5.85;3.08;;;15.50;99.90;;;;;;4965504;28;20181;-79
2021/07/12 03:39:11;;;;;;;5.03;2.45;;;15.50;99.90;;;;;;4976616;28;20188;-79
2021/07/12 03:41:37;;;;;;;4.05;2.95;;;15.60;99.90;;;;;;4963073;28;20182;-79
2021/07/12 03:44:06;;;;;;;3.13;2.65;;;15.80;99.90;;;;;;4964846;28;20259;-78
2021/07/12 03:46:32;;;;;;;2.75;2.47;;;15.80;99.90;;;;;;4964002;28;20181;-79
2021/07/12 03:48:57;;;;;;;5.97;3.22;;;15.80;99.90;;;;;;4963110;28;20557;-78
2021/07/12 03:51:25;;;;;;;5.07;3.25;;;15.70;99.90;;;;;;4965597;28;20558;-77
2021/07/12 03:53:51;;;;;;;7.97;3.20;;;15.70;99.90;;;;;;4964106;28;20197;-79
2021/07/12 03:56:17;;;;;;;3.50;2.63;;;15.80;99.90;;;;;;4964180;28;20261;-78
2021/07/12 03:58:44;;;;;;;5.95;2.90;;;16.00;99.90;;;;;;4963745;28;20213;-77
2021/07/12 04:01:10;;;;;;;3.42;2.45;;;16.20;99.90;;;;;;4964223;28;20209;-78
2021/07/12 04:03:35;;;;;;;4.18;2.92;;;16.50;99.90;;;;;;4962846;28;20701;-78
2021/07/12 04:06:03;;;;;;;4.57;3.22;;;16.60;99.90;;;;;;4962268;28;20186;-77
2021/07/12 04:08:28;;;;;;;3.28;2.97;;;16.60;99.90;;;;;;4964678;28;20182;-79
2021/07/12 04:10:54;;;;;;;3.20;2.78;;;16.70;99.90;;;;;;4962330;28;20689;-79
2021/07/12 04:13:20;;;;;;;4.28;3.33;;;16.70;99.90;;;;;;4964201;28;20215;-79
2021/07/12 04:15:45;;;;;;;3.83;3.13;;;16.90;99.90;;;;;;4962491;28;20201;-78
2021/07/12 04:18:11;;;;;;;6.93;3.50;;;17.00;99.90;;;;;;4962724;28;20221;-78
2021/07/12 04:20:41;;;;;;;6.97;3.65;;;17.00;99.90;;;;;;4960670;28;20212;-79
2021/07/12 04:23:07;;;;;;;4.40;3.63;;;17.00;99.90;;;;;;4964339;28;20231;-78
2021/07/12 04:25:33;;;;;;;4.35;3.92;;;17.10;99.90;;;;;;4961710;28;20205;-76
2021/07/12 04:27:58;;;;;;;4.65;3.20;;;17.20;99.90;;;;;;4965649;28;20188;-79
2021/07/12 04:30:25;;;;;;;3.90;2.95;;;17.20;99.90;;;;;;4964319;28;20245;-79
2021/07/12 04:32:51;;;;;;;5.22;3.25;;;17.60;99.90;;;;;;4963241;28;20591;-79
2021/07/12 04:35:17;;;;;;;5.53;2.80;;;18.30;99.90;;;;;;4962935;28;20239;-79
2021/07/12 04:37:43;;;;;;;3.50;2.65;;;19.00;99.90;;;;;;4962323;28;20201;-79
2021/07/12 04:40:09;;;;;;;4.70;2.17;;;19.60;99.90;;;;;;4963037;28;20185;-78
2021/07/12 04:42:35;;;;;;;2.50;2.30;;;20.10;99.90;;;;;;4962920;28;20729;-80
2021/07/12 04:45:02;;;;;;;4.45;3.10;;;20.90;99.90;;;;;;4966127;28;20257;-79
2021/07/12 04:47:28;;;;;;;2.65;2.22;;;21.40;99.90;;;;;;4961512;28;20244;-80
2021/07/12 04:49:54;;;;;;;4.03;2.90;;;21.50;99.90;;;;;;4958806;28;20186;-76
2021/07/12 04:52:20;;;;;;;3.75;2.63;;;21.70;99.90;;;;;;4961318;28;20188;-79
2021/07/12 04:54:46;;;;;;;2.88;2.35;;;22.00;99.90;;;;;;4961109;28;20193;-78
2021/07/12 04:57:11;;;;;;;2.65;2.40;;;22.40;99.90;;;;;;4962119;28;20217;-78
2021/07/12 04:59:40;;;;;;;4.00;2.60;;;22.00;99.90;;;;;;4962926;28;20267;-78
2021/07/12 05:02:10;;;;;;;4.22;2.35;;;22.10;99.90;;;;;;4961068;28;20185;-78
2021/07/12 05:04:36;;;;;;;3.47;2.63;;;22.60;99.90;;;;;;4963468;28;20203;-77
2021/07/12 05:07:03;;;;;;;3.88;2.70;;;22.80;99.90;;;;;;4962942;28;20189;-79
2021/07/12 05:09:29;;;;;;;5.72;2.47;;;23.00;99.90;;;;;;4959223;28;20193;-77
2021/07/12 05:11:56;;;;;;;3.92;2.60;;;22.90;99.90;;;;;;4960799;28;20193;-77
2021/07/12 05:14:21;;;;;;;5.50;2.47;;;22.90;99.90;;;;;;4964386;28;20238;-78
2021/07/12 05:16:47;;;;;;;4.07;2.60;;;23.40;99.90;;;;;;4959142;28;20241;-78
2021/07/12 05:19:14;;;;;;;2.95;2.60;;;23.70;99.90;;;;;;4962945;28;20236;-79
2021/07/12 05:21:40;;;;;;;2.95;2.67;;;24.20;99.90;;;;;;4962420;28;21009;-77
2021/07/12 05:24:06;;;;;;;3.20;2.90;;;24.60;99.90;;;;;;4961030;28;20312;-78
2021/07/12 05:26:32;;;;;;;3.97;3.38;;;24.70;99.90;;;;;;4961126;28;20268;-77
2021/07/12 05:28:57;;;;;;;4.20;3.80;;;25.10;99.90;;;;;;4962452;28;20408;-77
2021/07/12 05:31:23;;;;;;;5.05;3.13;;;24.80;99.90;;;;;;4959398;28;20201;-77
2021/07/12 05:33:48;;;;;;;3.33;3.03;;;25.20;99.90;;;;;;4957517;28;20216;-76
2021/07/12 05:36:14;;;;;;;5.50;2.85;;;25.50;99.90;;;;;;4958749;28;20185;-78
2021/07/12 05:38:40;;;;;;;5.68;3.10;;;25.80;99.90;;;;;;4959388;28;20286;-77
2021/07/12 05:41:06;;;;;;;4.53;2.75;;;26.50;99.90;;;;;;4960413;28;20208;-78
2021/07/12 05:43:31;;;;;;;4.63;2.65;;;26.40;99.90;;;;;;4961504;28;20201;-77
2021/07/12 05:45:57;;;;;;;4.00;2.67;;;26.00;99.90;;;;;;4961083;28;20181;-77
2021/07/12 05:48:22;;;;;;;6.32;2.80;;;26.30;99.90;;;;;;4961518;28;20269;-78
2021/07/12 05:50:48;;;;;;;2.90;2.70;;;26.40;99.90;;;;;;4958348;28;20468;-78
2021/07/12 05:53:15;;;;;;;4.72;2.60;;;26.60;99.90;;;;;;4961177;28;20209;-77
2021/07/12 05:55:42;;;;;;;2.92;2.70;;;27.00;99.90;;;;;;4959912;28;20189;-77
2021/07/12 05:58:08;;;;;;;2.95;2.08;;;27.40;99.90;;;;;;4958284;28;20215;-77
2021/07/12 06:00:33;;;;;;;3.38;2.22;;;27.40;99.90;;;;;;4958167;28;20212;-78
2021/07/12 06:02:59;;;;;;;2.42;2.13;;;27.60;99.90;;;;;;4957767;28;20236;-77
2021/07/12 06:05:25;;;;;;;3.20;2.60;;;27.70;99.90;;;;;;4959702;28;20200;-77
2021/07/12 06:07:51;;;;;;;2.60;2.40;;;27.60;99.90;;;;;;4958889;28;20243;-78
2021/07/12 06:10:16;;;;;;;3.17;2.88;;;27.60;99.90;;;;;;4957589;28;20185;-77
2021/07/12 06:12:42;;;;;;;2.20;2.08;;;27.90;99.90;;;;;;4957614;28;20201;-77
2021/07/12 06:15:09;;;;;;;2.65;2.17;;;27.90;99.90;;;;;;4958101;28;20201;-77
2021/07/12 06:17:35;;;;;;;2.50;2.30;;;28.10;99.90;;;;;;4955979;28;20239;-77
2021/07/12 06:20:01;;;;;;;2.85;2.63;;;28.20;99.90;;;;;;4959731;28;20647;-78
2021/07/12 06:22:26;;;;;;;3.95;2.70;;;28.60;99.90;;;;;;4958609;28;20228;-77
2021/07/12 06:24:52;;;;;;;2.70;2.50;;;28.40;99.90;;;;;;4958027;28;20185;-77
2021/07/12 06:27:18;;;;;;;4.05;2.78;;;28.60;99.90;;;;;;4958356;28;20216;-77
2021/07/12 06:29:44;;;;;;;3.15;2.15;;;28.60;99.90;;;;;;4958703;28;20224;-76
2021/07/12 06:32:09;;;;;;;2.70;2.50;;;28.10;99.90;;;;;;4958355;28;20223;-79
2021/07/12 06:34:35;;;;;;;3.97;2.70;;;28.20;99.90;;;;;;4958176;28;20753;-78
2021/07/12 06:37:01;;;;;;;2.67;2.35;;;27.90;99.90;;;;;;4960576;28;20591;-77
2021/07/12 06:39:27;;;;;;;2.70;2.47;;;28.30;99.90;;;;;;4958720;28;20193;-77
2021/07/12 06:41:52;;;;;;;2.72;2.53;;;28.30;99.90;;;;;;4957700;28;20686;-77
2021/07/12 06:44:18;;;;;;;3.25;2.47;;;27.90;99.90;;;;;;4957073;28;20209;-76
2021/07/12 06:46:43;;;;;;;2.90;2.60;;;27.40;99.90;;;;;;4959606;28;20186;-78
2021/07/12 06:49:09;;;;;;;2.83;2.40;;;26.80;99.90;;;;;;4956961;28;21170;-78
2021/07/12 06:51:35;;;;;;;3.75;2.65;;;26.20;99.90;;;;;;4952705;28;20197;-76
2021/07/12 06:54:00;;;;;;;3.42;3.00;;;25.80;99.90;;;;;;4960367;28;20758;-76
2021/07/12 06:56:26;;;;;;;3.08;2.78;;;25.70;99.90;;;;;;4960279;28;20236;-78
2021/07/12 06:58:52;;;;;;;4.72;3.10;;;25.50;99.90;;;;;;4957635;28;20213;-79
2021/07/12 07:01:18;;;;;;;4.53;3.10;;;25.10;99.90;;;;;;4957120;28;20291;-78
2021/07/12 07:03:44;;;;;;;5.18;2.90;;;24.50;99.90;;;;;;4956356;28;20292;-76
2021/07/12 07:06:10;;;;;;;2.80;2.60;;;24.20;99.90;;;;;;4955314;28;20640;-78
2021/07/12 07:08:35;;;;;;;3.65;3.35;;;24.00;99.90;;;;;;4956826;28;20186;-78
2021/07/12 07:11:01;;;;;;;3.67;3.08;;;23.70;99.90;;;;;;4951970;28;20289;-76
2021/07/12 07:13:27;;;;;;;3.53;3.13;;;23.70;99.90;;;;;;4947810;28;20228;-77
2021/07/12 07:15:52;;;;;;;5.18;3.40;;;23.60;99.90;;;;;;4952193;28;20650;-77
2021/07/12 07:18:18;;;;;;;3.53;2.97;;;23.60;99.90;;;;;;4956328;28;20205;-77
2021/07/12 07:20:43;;;;;;;3.17;2.80;;;23.70;99.90;;;;;;4946923;28;20178;-77
2021/07/12 07:23:09;;;;;;;3.95;3.22;;;23.80;99.90;;;;;;4956494;28;20215;-79
2021/07/12 07:25:35;;;;;;;3.50;3.20;;;23.60;99.90;;;;;;4951733;28;20193;-76
2021/07/12 07:28:02;;;;;;;4.35;2.75;;;23.40;99.90;;;;;;4950969;28;21147;-77
2021/07/12 07:30:29;;;;;;;2.78;2.47;;;23.50;99.90;;;;;;4948387;28;20193;-79
2021/07/12 07:32:54;;;;;;;4.57;2.67;;;23.80;99.90;;;;;;4948374;28;20260;-77
2021/07/12 07:35:20;;;;;;;3.67;3.25;;;23.70;99.90;;;;;;4958567;28;20272;-78
2021/07/12 07:37:46;;;;;;;3.15;2.88;;;23.50;99.90;;;;;;4956713;28;20205;-79
2021/07/12 07:40:14;;;;;;;3.45;2.97;;;23.60;99.90;;;;;;4955172;28;20189;-79
2021/07/12 07:42:40;;;;;;;3.70;3.30;;;23.80;99.90;;;;;;4955053;28;20208;-77
2021/07/12 07:45:07;;;;;;;3.40;3.10;;;23.90;99.90;;;;;;4952043;28;20182;-78
2021/07/12 07:47:34;;;;;;;2.90;2.70;;;24.30;99.90;;;;;;4952484;28;20240;-77
2021/07/12 07:50:00;;;;;;;3.40;2.45;;;24.40;99.90;;;;;;4952152;28;20553;-77
2021/07/12 07:52:25;;;;;;;3.25;2.95;;;24.60;99.90;;;;;;4952867;28;20222;-77
2021/07/12 07:54:51;;;;;;;4.10;2.95;;;24.40;99.90;;;;;;4952998;28;20725;-77
2021/07/12 07:57:17;;;;;;;2.78;2.58;;;24.10;99.90;;;;;;4953451;28;20688;-77
2021/07/12 07:59:43;;;;;;;2.80;2.60;;;24.00;99.90;;;;;;4957278;28;20236;-77
2021/07/12 08:02:08;;;;;;;3.60;3.20;;;24.10;99.90;;;;;;4954001;28;20601;-79
2021/07/12 08:04:34;;;;;;;4.43;3.05;;;24.20;99.90;;;;;;4948530;28;20190;-79
2021/07/12 08:06:59;;;;;;;3.33;3.03;;;24.30;99.90;;;;;;4956939;28;20185;-79
2021/07/12 08:09:25;;;;;;;2.50;2.30;;;24.70;99.90;;;;;;4953796;28;20193;-79
2021/07/12 08:11:51;;;;;;;2.90;2.70;;;24.90;99.90;;;;;;4961664;28;20437;-79
2021/07/12 08:14:18;;;;;;;2.95;2.75;;;24.90;99.90;;;;;;4960439;28;20216;-78
2021/07/12 08:16:44;;;;;;;3.67;3.17;;;25.10;99.90;;;;;;4953773;28;20208;-78
2021/07/12 08:19:10;;;;;;;2.97;2.67;;;25.20;99.90;;;;;;4948356;28;20575;-79
2021/07/12 08:21:36;;;;;;;2.90;2.70;;;25.30;99.90;;;;;;4949381;28;20319;-79
2021/07/12 08:24:02;;;;;;;3.45;3.15;;;25.30;99.90;;;;;;4954830;28;20300;-78
2021/07/12 08:26:27;;;;;;;2.72;2.53;;;25.40;99.90;;;;;;4961130;28;20190;-79
2021/07/12 08:28:53;;;;;;;2.72;2.53;;;25.50;99.90;;;;;;4957511;28;20197;-79
2021/07/12 08:31:19;;;;;;;2.65;2.45;;;25.70;99.90;;;;;;4956397;28;20486;-79
2021/07/12 08:33:44;;;;;;;2.53;2.33;;;25.70;99.90;;;;;;4949006;28;20418;-78
2021/07/12 08:36:13;;;;;;;2.45;2.28;;;25.90;99.90;;;;;;4952425;28;20726;-78
2021/07/12 08:38:39;;;;;;;4.43;2.50;;;25.80;99.90;;;;;;4949083;28;20300;-79
2021/07/12 08:41:05;;;;;;;2.15;1.95;;;26.00;99.90;;;;;;4955656;28;20932;-78
2021/07/12 08:43:30;;;;;;;2.55;1.95;;;26.20;99.90;;;;;;4950288;28;20213;-78
2021/07/12 08:45:56;;;;;;;2.63;2.42;;;26.20;99.90;;;;;;4954937;28;20237;-78
2021/07/12 08:48:22;;;;;;;2.55;2.03;;;26.50;99.90;;;;;;4950310;28;20280;-80
2021/07/12 08:50:47;;;;;;;2.35;2.15;;;26.60;99.90;;;;;;4949661;28;20186;-78
2021/07/12 08:53:14;;;;;;;3.17;2.10;;;26.10;99.90;;;;;;4956099;28;20816;-78
2021/07/12 08:55:42;;;;;;;2.40;2.20;;;26.10;99.90;;;;;;4955977;28;20232;-78
2021/07/12 08:58:27;;;;;;;2.47;2.28;;;26.30;99.90;;;;;;4953311;28;20511;-78
2021/07/12 09:01:00;;;;;;;2.47;2.28;;;26.40;99.90;;;;;;4958193;28;20185;-78
2021/07/12 09:03:28;;;;;;;2.55;2.35;;;26.50;99.90;;;;;;4950449;28;20964;-78
2021/07/12 09:05:56;;;;;;;2.58;2.38;;;26.30;99.90;;;;;;4955506;28;20609;-78
2021/07/12 09:08:41;;;;;;;2.28;2.17;;;26.40;99.90;;;;;;4961224;28;20185;-78
2021/07/12 09:11:38;;;;;;;2.38;2.20;;;26.70;99.90;;;;;;4956656;28;20276;-78
2021/07/12 09:14:07;;;;;;;7.28;4.65;;;27.00;99.90;;;;;;4951604;28;20221;-78
2021/07/12 09:16:47;;;;;;;3.00;2.80;;;27.30;99.90;;;;;;4950614;28;20684;-78
2021/07/12 09:19:25;;;;;;;4.28;3.40;;;27.10;99.90;;;;;;4953767;28;20636;-79
2021/07/12 09:21:53;;;;;;;3.80;2.90;;;27.30;99.90;;;;;;4957112;28;20173;-79
2021/07/12 09:24:45;;;;;;;2.83;2.63;;;27.30;99.90;;;;;;4960955;28;20439;-79
2021/07/12 09:27:26;;;;;;;2.55;2.35;;;27.20;99.90;;;;;;4958387;28;20235;-79
2021/07/12 09:29:55;;;;;;;2.70;2.50;;;27.00;99.90;;;;;;4947859;28;20182;-78
2021/07/12 09:32:23;;;;;;;2.40;2.20;;;26.50;99.90;;;;;;4953098;28;20192;-78
2021/07/12 09:34:55;;;;;;;2.33;2.15;;;26.50;99.90;;;;;;4956112;28;20445;-78
2021/07/12 09:37:21;;;;;;;2.08;1.98;;;26.50;99.90;;;;;;4958722;28;20431;-78
2021/07/12 09:39:53;;;;;;;4.55;2.45;;;26.60;99.90;;;;;;4955233;28;20205;-78
2021/07/12 09:42:24;;;;;;;2.38;2.20;;;26.70;99.90;;;;;;4956561;28;20465;-79
2021/07/12 09:44:53;;;;;;;4.07;3.17;;;26.60;99.90;;;;;;4950227;28;20195;-78
2021/07/12 09:47:20;;;;;;;3.58;3.08;;;26.60;99.90;;;;;;4948080;28;20280;-79
2021/07/12 09:49:47;;;;;;;2.40;2.20;;;26.60;99.90;;;;;;4951677;28;20185;-78
2021/07/12 09:52:17;;;;;;;2.42;2.22;;;26.80;99.90;;;;;;4948445;28;20304;-79
2021/07/12 09:54:45;;;;;;;2.40;2.20;;;27.20;99.90;;;;;;4952388;28;20370;-79
2021/07/12 09:57:14;;;;;;;2.00;1.90;;;27.20;99.90;;;;;;4954373;28;20267;-78
2021/07/12 10:00:06;;;;;;;2.88;2.17;;;27.00;99.90;;;;;;4950844;28;20306;-79
2021/07/12 10:02:33;;;;;;;2.67;2.47;;;27.10;99.90;;;;;;4956944;28;20212;-79
2021/07/12 10:05:04;;;;;;;2.50;2.30;;;27.50;99.90;;;;;;4957597;28;20189;-79
2021/07/12 10:07:30;;;;;;;2.40;2.20;;;28.10;99.90;;;;;;4950974;28;20427;-79
2021/07/12 10:09:57;;;;;;;2.50;2.30;;;28.00;99.90;;;;;;4954212;28;20189;-79
2021/07/12 10:12:23;;;;;;;2.50;2.30;;;28.10;99.90;;;;;;4948313;28;20185;-78
2021/07/12 10:14:49;;;;;;;3.80;2.88;;;28.30;99.90;;;;;;4953806;28;20200;-79
2021/07/12 10:17:15;;;;;;;2.47;2.28;;;28.20;99.90;;;;;;4955917;28;20205;-78
2021/07/12 10:19:43;;;;;;;2.45;2.28;;;28.30;99.90;;;;;;4960393;28;20188;-78
2021/07/12 10:22:11;;;;;;;2.70;2.50;;;27.90;99.90;;;;;;4965180;28;20185;-78
2021/07/12 10:24:42;;;;;;;6.03;2.67;;;27.70;99.90;;;;;;4949318;28;20208;-76
2021/07/12 10:27:25;;;;;;;2.72;2.53;;;27.50;99.90;;;;;;4946118;28;20189;-75
2021/07/12 10:29:52;;;;;;;2.67;2.47;;;27.70;99.90;;;;;;4952159;28;20873;-79
2021/07/12 10:32:20;;;;;;;2.53;2.33;;;28.10;99.90;;;;;;4950599;28;20635;-77
2021/07/12 10:34:48;;;;;;;2.13;2.03;;;28.10;99.90;;;;;;4949553;28;20192;-77
2021/07/12 10:37:19;;;;;;;2.67;2.47;;;28.10;99.90;;;;;;4952988;28;20311;-77
2021/07/12 10:39:57;;;;;;;2.72;2.30;;;28.20;99.90;;;;;;4957832;28;20284;-77
2021/07/12 10:42:41;;;;;;;2.55;2.35;;;27.90;99.90;;;;;;4943771;28;20192;-75
2021/07/12 10:45:22;;;;;;;2.38;2.28;;;27.90;99.90;;;;;;4954975;28;20185;-76
2021/07/12 10:47:49;;;;;;;2.03;1.92;;;28.10;99.90;;;;;;4950833;28;20184;-77
2021/07/12 10:50:40;;;;;;;2.40;2.20;;;28.10;99.90;;;;;;4949131;28;20190;-75
2021/07/12 10:53:15;;;;;;;2.38;2.17;;;28.30;99.90;;;;;;4955859;28;20206;-74
2021/07/12 10:56:07;;;;;;;2.80;2.60;;;28.50;99.90;;;;;;4954252;28;20184;-80
2021/07/12 10:58:34;;;;;;;5.63;2.75;;;28.70;99.90;;;;;;4946481;28;20197;-76
2021/07/12 11:01:05;;;;;;;2.38;2.20;;;28.60;99.90;;;;;;4946626;28;20185;-77
2021/07/12 11:03:49;;;;;;;2.35;2.20;;;28.30;99.90;;;;;;4955218;28;20208;-75
2021/07/12 11:06:21;;;;;;;2.00;1.90;;;28.30;99.90;;;;;;4953352;28;20186;-78
2021/07/12 11:08:52;;;;;;;2.08;1.98;;;28.30;99.90;;;;;;4945750;28;20541;-78
2021/07/12 11:11:21;;;;;;;2.20;2.00;;;28.30;99.90;;;;;;4953583;28;20630;-76
2021/07/12 11:13:53;;;;;;;2.55;2.35;;;28.70;99.90;;;;;;4954684;28;20649;-78
2021/07/12 11:16:36;;;;;;;2.40;2.15;;;28.90;99.90;;;;;;4954134;28;20713;-79
2021/07/12 11:19:17;;;;;;;1.70;1.60;;;28.70;99.90;;;;;;4951457;28;20280;-77
2021/07/12 11:21:42;;;;;;;2.10;2.00;;;28.70;99.90;;;;;;4955396;28;20267;-76
2021/07/12 11:24:08;;;;;;;1.70;1.60;;;28.60;99.90;;;;;;4956657;28;20628;-76
2021/07/12 11:26:35;;;;;;;1.40;1.33;;;28.40;99.90;;;;;;4954782;28;20181;-79
2021/07/12 11:29:18;;;;;;;2.17;1.85;;;28.30;99.90;;;;;;4946990;28;20636;-76
2021/07/12 11:31:54;;;;;;;1.67;1.58;;;28.50;99.90;;;;;;4954004;28;20211;-78
2021/07/12 11:34:33;;;;;;;1.80;1.70;;;28.40;99.90;;;;;;4957543;28;20209;-78
2021/07/12 11:37:14;;;;;;;1.80;1.70;;;28.40;99.90;;;;;;4959855;28;20188;-78
2021/07/12 11:39:41;;;;;;;1.70;1.60;;;28.30;99.90;;;;;;4953778;28;20846;-78
2021/07/12 11:42:13;;;;;;;2.10;1.73;;;28.00;99.90;;;;;;4974390;28;20180;-78
2021/07/12 11:44:45;;;;;;;1.42;1.33;;;27.90;99.90;;;;;;4957327;28;20184;-77
2021/07/12 11:47:22;;;;;;;1.85;1.70;;;27.90;99.90;;;;;;4957001;28;20193;-79
2021/07/12 11:49:54;;;;;;;1.70;1.60;;;27.90;99.90;;;;;;4957041;28;20185;-79
2021/07/12 11:52:22;;;;;;;2.22;2.08;;;27.90;99.90;;;;;;4955239;28;20184;-79
2021/07/12 11:54:47;;;;;;;2.00;1.90;;;27.80;99.90;;;;;;4960824;28;20273;-78
2021/07/12 11:57:15;;;;;;;8.23;2.65;;;28.00;99.90;;;;;;4957399;28;20295;-77
2021/07/12 11:59:42;;;;;;;2.40;1.88;;;28.20;99.90;;;;;;4959341;28;20317;-79
2021/07/12 12:02:11;;;;;;;2.00;1.90;;;27.90;99.90;;;;;;4954461;28;20221;-78
2021/07/12 12:05:05;;;;;;;1.98;1.88;;;27.90;99.90;;;;;;4956074;28;20181;-77
2021/07/12 12:07:33;;;;;;;2.10;1.90;;;28.10;99.90;;;;;;4952888;28;20200;-77
2021/07/12 12:10:00;;;;;;;1.80;1.70;;;27.80;99.90;;;;;;4953433;28;20257;-75
2021/07/12 12:12:37;;;;;;;1.70;1.60;;;27.80;99.90;;;;;;4917911;28;20308;-77
2021/07/12 12:15:10;;;;;;;1.70;1.60;;;28.00;99.90;;;;;;4944264;29;20376;-79
2021/07/12 12:17:40;;;;;;;1.80;1.70;;;28.30;99.90;;;;;;4933601;29;20688;-77
2021/07/12 12:20:19;;;;;;;1.98;1.88;;;28.30;99.90;;;;;;4935422;29;20198;-77
2021/07/12 12:23:06;;;;;;;1.70;1.60;;;28.40;99.90;;;;;;4929178;29;20465;-76
2021/07/12 12:25:37;;;;;;;1.80;1.70;;;28.20;99.90;;;;;;4927590;29;20206;-74
2021/07/12 12:28:04;;;;;;;1.95;1.65;;;28.10;99.90;;;;;;4926605;29;20186;-76
2021/07/12 12:30:30;;;;;;;1.70;1.60;;;28.30;99.90;;;;;;4929164;29;20257;-75
2021/07/12 12:32:58;;;;;;;1.73;1.63;;;28.30;99.90;;;;;;4933736;28;20218;-77
2021/07/12 12:35:26;;;;;;;1.95;1.85;;;28.30;99.90;;;;;;4926270;29;20194;-76
2021/07/12 12:37:53;;;;;;;1.75;1.65;;;28.10;99.90;;;;;;4933582;29;20717;-75
2021/07/12 12:40:20;;;;;;;1.73;1.63;;;28.10;99.90;;;;;;4931307;29;20205;-77
2021/07/12 12:42:48;;;;;;;1.58;1.38;;;28.30;99.90;;;;;;4927453;29;20281;-74
2021/07/12 12:45:44;;;;;;;1.70;1.60;;;28.00;99.90;;;;;;4929813;28;20186;-79
2021/07/12 12:48:10;;;;;;;1.38;1.30;;;27.80;99.90;;;;;;4926676;29;20253;-76
2021/07/12 12:50:38;;;;;;;1.90;1.80;;;28.10;99.90;;;;;;4932911;29;20273;-76
2021/07/12 12:53:09;;;;;;;2.85;1.58;;;28.20;99.90;;;;;;4933444;28;20213;-77
2021/07/12 12:55:36;;;;;;;1.85;1.75;;;28.10;99.90;;;;;;4928400;29;20724;-75
2021/07/12 12:58:12;;;;;;;1.55;1.45;;;28.00;99.90;;;;;;4931424;29;20248;-80